sensor_id;sensor_type;location;lat;lon;timestamp;pressure;altitude;pressure_sealevel;temperature;humidity
28606;BME280;46498;49.968;7.754;2023-08-07T00:00:58;-18603.00;;;10.21;100.00
28606;BME280;46498;49.968;7.754;2023-08-07T00:05:58;-18602.00;;;10.18;100.00
28606;BME280;46498;49.968;7.754;2023-08-07T00:11:07;-18602.00;;;10.19;100.00
28606;BME280;46498;49.968;7.754;2023-08-07T00:16:08;-18602.00;;;10.18;100.00
28606;BME280;46498;49.968;7.754;2023-08-07T00:21:11;-18600.00;;;10.12;100.00
28606;BME280;46498;49.968;7.754;2023-08-07T00:26:12;-18599.00;;;10.09;100.00
28606;BME280;46498;49.968;7.754;2023-08-07T00:31:13;-18598.00;;;10.06;100.00
28606;BME280;46498;49.968;7.754;2023-08-07T00:36:14;-18597.00;;;10.03;100.00
28606;BME280;46498;49.968;7.754;2023-08-07T00:41:16;-18598.00;;;10.04;100.00
28606;BME280;46498;49.968;7.754;2023-08-07T00:46:18;-18598.00;;;10.05;100.00
28606;BME280;46498;49.968;7.754;2023-08-07T00:51:20;-18598.00;;;10.06;100.00
28606;BME280;46498;49.968;7.754;2023-08-07T00:56:22;-18598.00;;;10.04;100.00
28606;BME280;46498;49.968;7.754;2023-08-07T01:01:23;-18598.00;;;10.06;100.00
28606;BME280;46498;49.968;7.754;2023-08-07T01:06:24;-18598.00;;;10.04;100.00
28606;BME280;46498;49.968;7.754;2023-08-07T01:12:36;-18600.00;;;10.13;100.00
28606;BME280;46498;49.968;7.754;2023-08-07T01:17:43;-18602.00;;;10.18;100.00
28606;BME280;46498;49.968;7.754;2023-08-07T01:22:45;-18598.00;;;10.05;100.00
28606;BME280;46498;49.968;7.754;2023-08-07T01:27:53;-18600.00;;;10.10;100.00
28606;BME280;46498;49.968;7.754;2023-08-07T01:33:09;-18601.00;;;10.15;100.00
28606;BME280;46498;49.968;7.754;2023-08-07T01:38:11;-18599.00;;;10.08;100.00
28606;BME280;46498;49.968;7.754;2023-08-07T01:43:14;-18599.00;;;10.07;100.00
28606;BME280;46498;49.968;7.754;2023-08-07T01:48:15;-18598.00;;;10.04;100.00
28606;BME280;46498;49.968;7.754;2023-08-07T01:53:16;-18597.00;;;10.02;100.00
28606;BME280;46498;49.968;7.754;2023-08-07T01:58:17;-18596.00;;;10.00;100.00
28606;BME280;46498;49.968;7.754;2023-08-07T02:03:17;-18596.00;;;9.99;100.00
28606;BME280;46498;49.968;7.754;2023-08-07T02:08:19;-18597.00;;;10.01;100.00
28606;BME280;46498;49.968;7.754;2023-08-07T02:13:19;-18594.00;;;9.94;100.00
28606;BME280;46498;49.968;7.754;2023-08-07T02:18:20;-18593.00;;;9.89;100.00
28606;BME280;46498;49.968;7.754;2023-08-07T02:23:21;-18592.00;;;9.86;100.00
28606;BME280;46498;49.968;7.754;2023-08-07T02:28:22;-18591.00;;;9.83;100.00
28606;BME280;46498;49.968;7.754;2023-08-07T02:33:23;-18590.00;;;9.81;100.00
28606;BME280;46498;49.968;7.754;2023-08-07T02:38:25;-18592.00;;;9.85;100.00
28606;BME280;46498;49.968;7.754;2023-08-07T02:43:26;-18592.00;;;9.87;100.00
28606;BME280;46498;49.968;7.754;2023-08-07T02:48:27;-18592.00;;;9.86;100.00
28606;BME280;46498;49.968;7.754;2023-08-07T02:53:28;-18593.00;;;9.89;100.00
28606;BME280;46498;49.968;7.754;2023-08-07T02:58:29;-18592.00;;;9.86;100.00
28606;BME280;46498;49.968;7.754;2023-08-07T03:03:30;-18593.00;;;9.89;100.00
28606;BME280;46498;49.968;7.754;2023-08-07T03:08:31;-18593.00;;;9.88;100.00
28606;BME280;46498;49.968;7.754;2023-08-07T03:13:32;-18592.00;;;9.85;100.00
28606;BME280;46498;49.968;7.754;2023-08-07T03:18:33;-18593.00;;;9.89;100.00
28606;BME280;46498;49.968;7.754;2023-08-07T03:23:34;-18593.00;;;9.88;100.00
28606;BME280;46498;49.968;7.754;2023-08-07T03:28:37;-18593.00;;;9.89;100.00
28606;BME280;46498;49.968;7.754;2023-08-07T03:33:39;-18590.00;;;9.79;100.00
28606;BME280;46498;49.968;7.754;2023-08-07T03:38:40;-18587.00;;;9.71;100.00
28606;BME280;46498;49.968;7.754;2023-08-07T03:43:42;-18586.00;;;9.69;100.00
28606;BME280;46498;49.968;7.754;2023-08-07T03:48:44;-18586.00;;;9.69;100.00
28606;BME280;46498;49.968;7.754;2023-08-07T03:53:45;-18587.00;;;9.71;100.00
28606;BME280;46498;49.968;7.754;2023-08-07T03:58:46;-18588.00;;;9.75;100.00
28606;BME280;46498;49.968;7.754;2023-08-07T04:03:47;-18589.00;;;9.76;100.00
28606;BME280;46498;49.968;7.754;2023-08-07T04:08:48;-18589.00;;;9.78;100.00
28606;BME280;46498;49.968;7.754;2023-08-07T04:13:49;-18590.00;;;9.79;100.00
28606;BME280;46498;49.968;7.754;2023-08-07T04:18:51;-18589.00;;;9.77;100.00
28606;BME280;46498;49.968;7.754;2023-08-07T04:23:51;-18590.00;;;9.81;100.00
28606;BME280;46498;49.968;7.754;2023-08-07T04:28:52;-18590.00;;;9.79;100.00
28606;BME280;46498;49.968;7.754;2023-08-07T04:33:53;-18592.00;;;9.85;100.00
28606;BME280;46498;49.968;7.754;2023-08-07T04:38:54;-18590.00;;;9.79;100.00
28606;BME280;46498;49.968;7.754;2023-08-07T04:43:56;-18594.00;;;9.93;100.00
28606;BME280;46498;49.968;7.754;2023-08-07T04:48:57;-18593.00;;;9.88;100.00
28606;BME280;46498;49.968;7.754;2023-08-07T04:53:59;-18594.00;;;9.93;100.00
28606;BME280;46498;49.968;7.754;2023-08-07T04:59:01;-18596.00;;;10.00;100.00
28606;BME280;46498;49.968;7.754;2023-08-07T05:04:02;-18595.00;;;9.97;100.00
28606;BME280;46498;49.968;7.754;2023-08-07T05:09:05;-18595.00;;;9.96;100.00
28606;BME280;46498;49.968;7.754;2023-08-07T05:14:06;-18594.00;;;9.91;100.00
28606;BME280;46498;49.968;7.754;2023-08-07T05:19:06;-18595.00;;;9.94;100.00
28606;BME280;46498;49.968;7.754;2023-08-07T05:24:08;-18596.00;;;9.99;100.00
28606;BME280;46498;49.968;7.754;2023-08-07T05:29:08;-18597.00;;;10.03;100.00
28606;BME280;46498;49.968;7.754;2023-08-07T05:34:09;-18598.00;;;10.06;100.00
28606;BME280;46498;49.968;7.754;2023-08-07T05:39:10;-18597.00;;;10.02;100.00
28606;BME280;46498;49.968;7.754;2023-08-07T05:44:11;-18599.00;;;10.09;100.00
28606;BME280;46498;49.968;7.754;2023-08-07T05:49:12;-18597.00;;;10.01;100.00
28606;BME280;46498;49.968;7.754;2023-08-07T05:54:12;-18600.00;;;10.10;100.00
28606;BME280;46498;49.968;7.754;2023-08-07T05:59:13;-18600.00;;;10.13;100.00
28606;BME280;46498;49.968;7.754;2023-08-07T06:04:14;-18600.00;;;10.13;100.00
28606;BME280;46498;49.968;7.754;2023-08-07T06:09:15;-18605.00;;;10.27;100.00
28606;BME280;46498;49.968;7.754;2023-08-07T06:14:16;-18604.00;;;10.24;100.00
28606;BME280;46498;49.968;7.754;2023-08-07T06:19:18;-18605.00;;;10.27;100.00
28606;BME280;46498;49.968;7.754;2023-08-07T06:24:32;-18606.00;;;10.29;100.00
28606;BME280;46498;49.968;7.754;2023-08-07T06:29:33;-18607.00;;;10.33;100.00
28606;BME280;46498;49.968;7.754;2023-08-07T06:34:35;-18607.00;;;10.34;100.00
28606;BME280;46498;49.968;7.754;2023-08-07T06:39:36;-18607.00;;;10.32;100.00
28606;BME280;46498;49.968;7.754;2023-08-07T06:44:37;-18606.00;;;10.31;100.00
28606;BME280;46498;49.968;7.754;2023-08-07T06:49:38;-18611.00;;;10.46;100.00
28606;BME280;46498;49.968;7.754;2023-08-07T06:54:38;-18613.00;;;10.53;100.00
28606;BME280;46498;49.968;7.754;2023-08-07T06:59:39;-18613.00;;;10.53;100.00
28606;BME280;46498;49.968;7.754;2023-08-07T07:04:40;-18614.00;;;10.56;100.00
28606;BME280;46498;49.968;7.754;2023-08-07T07:09:41;-18616.00;;;10.62;100.00
28606;BME280;46498;49.968;7.754;2023-08-07T07:14:42;-18623.00;;;10.85;100.00
28606;BME280;46498;49.968;7.754;2023-08-07T07:19:43;-18623.00;;;10.84;100.00
28606;BME280;46498;49.968;7.754;2023-08-07T07:24:44;-18623.00;;;10.85;100.00
28606;BME280;46498;49.968;7.754;2023-08-07T07:29:45;-18624.00;;;10.87;100.00
28606;BME280;46498;49.968;7.754;2023-08-07T07:34:46;-18627.00;;;10.95;100.00
28606;BME280;46498;49.968;7.754;2023-08-07T07:39:48;-18630.00;;;11.05;100.00
28606;BME280;46498;49.968;7.754;2023-08-07T07:44:49;-18628.00;;;10.98;100.00
28606;BME280;46498;49.968;7.754;2023-08-07T07:50:07;-18626.00;;;10.94;100.00
28606;BME280;46498;49.968;7.754;2023-08-07T07:55:09;-18627.00;;;10.96;100.00
28606;BME280;46498;49.968;7.754;2023-08-07T08:00:12;-18630.00;;;11.05;100.00
28606;BME280;46498;49.968;7.754;2023-08-07T08:05:13;-18633.00;;;11.14;100.00
28606;BME280;46498;49.968;7.754;2023-08-07T08:10:16;-18634.00;;;11.17;100.00
28606;BME280;46498;49.968;7.754;2023-08-07T08:15:17;-18637.00;;;11.27;100.00
28606;BME280;46498;49.968;7.754;2023-08-07T08:20:18;-18645.00;;;11.52;100.00
28606;BME280;46498;49.968;7.754;2023-08-07T08:25:20;-18643.00;;;11.46;100.00
28606;BME280;46498;49.968;7.754;2023-08-07T08:30:20;-18643.00;;;11.46;100.00
28606;BME280;46498;49.968;7.754;2023-08-07T08:35:22;-18646.00;;;11.57;100.00
28606;BME280;46498;49.968;7.754;2023-08-07T08:40:23;-18652.00;;;11.76;100.00
28606;BME280;46498;49.968;7.754;2023-08-07T08:45:26;-18651.00;;;11.73;100.00
28606;BME280;46498;49.968;7.754;2023-08-07T08:50:28;-18650.00;;;11.68;100.00
28606;BME280;46498;49.968;7.754;2023-08-07T08:55:29;-18644.00;;;11.48;100.00
28606;BME280;46498;49.968;7.754;2023-08-07T09:00:31;-18642.00;;;11.43;100.00
28606;BME280;46498;49.968;7.754;2023-08-07T09:05:33;-18641.00;;;11.40;100.00
28606;BME280;46498;49.968;7.754;2023-08-07T09:10:36;-18634.00;;;11.19;100.00
28606;BME280;46498;49.968;7.754;2023-08-07T09:15:43;-18627.00;;;10.95;100.00
28606;BME280;46498;49.968;7.754;2023-08-07T09:20:48;-18623.00;;;10.83;100.00
28606;BME280;46498;49.968;7.754;2023-08-07T09:25:59;-18622.00;;;10.82;100.00
28606;BME280;46498;49.968;7.754;2023-08-07T09:31:00;-18624.00;;;10.86;100.00
28606;BME280;46498;49.968;7.754;2023-08-07T09:36:04;-18627.00;;;10.97;100.00
28606;BME280;46498;49.968;7.754;2023-08-07T09:41:05;-18633.00;;;11.16;100.00
28606;BME280;46498;49.968;7.754;2023-08-07T09:46:07;-18640.00;;;11.36;100.00
28606;BME280;46498;49.968;7.754;2023-08-07T09:51:08;-18647.00;;;11.58;100.00
28606;BME280;46498;49.968;7.754;2023-08-07T09:56:09;-18655.00;;;11.85;100.00
28606;BME280;46498;49.968;7.754;2023-08-07T10:01:11;-18664.00;;;12.12;100.00
28606;BME280;46498;49.968;7.754;2023-08-07T10:06:12;-18670.00;;;12.31;100.00
28606;BME280;46498;49.968;7.754;2023-08-07T10:11:13;-18683.00;;;12.73;100.00
28606;BME280;46498;49.968;7.754;2023-08-07T10:16:17;-18695.00;;;13.10;100.00
28606;BME280;46498;49.968;7.754;2023-08-07T10:21:19;-18712.00;;;13.64;100.00
28606;BME280;46498;49.968;7.754;2023-08-07T10:26:20;-18728.00;;;14.13;100.00
28606;BME280;46498;49.968;7.754;2023-08-07T10:31:23;-18736.00;;;14.38;96.18
28606;BME280;46498;49.968;7.754;2023-08-07T10:36:32;-18741.00;;;14.53;95.58
28606;BME280;46498;49.968;7.754;2023-08-07T10:41:47;-18747.00;;;14.72;95.66
28606;BME280;46498;49.968;7.754;2023-08-07T10:46:51;-18747.00;;;14.73;96.00
28606;BME280;46498;49.968;7.754;2023-08-07T10:51:52;-18737.00;;;14.41;91.87
28606;BME280;46498;49.968;7.754;2023-08-07T10:56:54;-18727.00;;;14.12;93.90
28606;BME280;46498;49.968;7.754;2023-08-07T11:01:55;-18724.00;;;14.02;95.93
28606;BME280;46498;49.968;7.754;2023-08-07T11:06:56;-18719.00;;;13.84;95.94
28606;BME280;46498;49.968;7.754;2023-08-07T11:11:58;-18717.00;;;13.79;96.12
28606;BME280;46498;49.968;7.754;2023-08-07T11:16:59;-18720.00;;;13.89;96.87
28606;BME280;46498;49.968;7.754;2023-08-07T11:22:01;-18732.00;;;14.27;95.11
28606;BME280;46498;49.968;7.754;2023-08-07T11:27:02;-18741.00;;;14.56;89.27
28606;BME280;46498;49.968;7.754;2023-08-07T11:32:06;-18746.00;;;14.70;92.45
28606;BME280;46498;49.968;7.754;2023-08-07T11:37:15;-18742.00;;;14.58;90.66
28606;BME280;46498;49.968;7.754;2023-08-07T11:42:17;-18755.00;;;14.98;86.63
28606;BME280;46498;49.968;7.754;2023-08-07T11:47:17;-18761.00;;;15.16;83.40
28606;BME280;46498;49.968;7.754;2023-08-07T11:52:20;-18749.00;;;14.79;81.97
28606;BME280;46498;49.968;7.754;2023-08-07T11:57:20;-18739.00;;;14.48;84.50
28606;BME280;46498;49.968;7.754;2023-08-07T12:02:23;-18741.00;;;14.55;85.53
28606;BME280;46498;49.968;7.754;2023-08-07T12:07:25;-18750.00;;;14.83;83.57
28606;BME280;46498;49.968;7.754;2023-08-07T12:12:27;-18768.00;;;15.39;78.96
28606;BME280;46498;49.968;7.754;2023-08-07T12:17:31;-18773.00;;;15.55;76.39
28606;BME280;46498;49.968;7.754;2023-08-07T12:22:35;-18770.00;;;15.45;70.06
28606;BME280;46498;49.968;7.754;2023-08-07T12:27:36;-18776.00;;;15.64;72.10
28606;BME280;46498;49.968;7.754;2023-08-07T12:32:37;-18770.00;;;15.47;73.53
28606;BME280;46498;49.968;7.754;2023-08-07T12:37:38;-18772.00;;;15.52;74.38
28606;BME280;46498;49.968;7.754;2023-08-07T12:42:38;-18771.00;;;15.48;72.87
28606;BME280;46498;49.968;7.754;2023-08-07T12:47:39;-18779.00;;;15.75;73.48
28606;BME280;46498;49.968;7.754;2023-08-07T12:52:42;-18793.00;;;16.17;72.73
28606;BME280;46498;49.968;7.754;2023-08-07T12:57:43;-18802.00;;;16.46;62.75
28606;BME280;46498;49.968;7.754;2023-08-07T13:02:46;-18794.00;;;16.21;62.03
28606;BME280;46498;49.968;7.754;2023-08-07T13:07:47;-18782.00;;;15.83;67.04
28606;BME280;46498;49.968;7.754;2023-08-07T13:12:49;-18775.00;;;15.61;71.18
28606;BME280;46498;49.968;7.754;2023-08-07T13:17:50;-18803.00;;;16.50;69.88
28606;BME280;46498;49.968;7.754;2023-08-07T13:22:51;-18818.00;;;16.96;62.87
28606;BME280;46498;49.968;7.754;2023-08-07T13:27:52;-18833.00;;;17.45;58.86
28606;BME280;46498;49.968;7.754;2023-08-07T13:32:53;-18843.00;;;17.75;56.49
28606;BME280;46498;49.968;7.754;2023-08-07T13:37:54;-18844.00;;;17.80;55.16
28606;BME280;46498;49.968;7.754;2023-08-07T13:42:54;-18863.00;;;18.37;53.12
28606;BME280;46498;49.968;7.754;2023-08-07T13:47:56;-18860.00;;;18.27;51.53
28606;BME280;46498;49.968;7.754;2023-08-07T13:52:57;-18832.00;;;17.40;55.53
28606;BME280;46498;49.968;7.754;2023-08-07T13:58:15;-18843.00;;;17.76;55.00
28606;BME280;46498;49.968;7.754;2023-08-07T14:03:16;-18847.00;;;17.87;51.15
28606;BME280;46498;49.968;7.754;2023-08-07T14:08:17;-18856.00;;;18.16;50.20
28606;BME280;46498;49.968;7.754;2023-08-07T14:13:18;-18857.00;;;18.19;49.35
28606;BME280;46498;49.968;7.754;2023-08-07T14:18:19;-18843.00;;;17.76;48.78
28606;BME280;46498;49.968;7.754;2023-08-07T14:23:20;-18833.00;;;17.43;50.97
28606;BME280;46498;49.968;7.754;2023-08-07T14:28:22;-18830.00;;;17.35;51.21
28606;BME280;46498;49.968;7.754;2023-08-07T14:33:23;-18847.00;;;17.87;48.53
28606;BME280;46498;49.968;7.754;2023-08-07T14:38:24;-18859.00;;;18.25;47.14
28606;BME280;46498;49.968;7.754;2023-08-07T14:43:29;-18855.00;;;18.14;48.05
28606;BME280;46498;49.968;7.754;2023-08-07T14:48:30;-18855.00;;;18.12;47.29
28606;BME280;46498;49.968;7.754;2023-08-07T14:53:31;-18858.00;;;18.21;47.63
28606;BME280;46498;49.968;7.754;2023-08-07T14:58:32;-18862.00;;;18.33;46.68
28606;BME280;46498;49.968;7.754;2023-08-07T15:03:33;-18851.00;;;18.00;46.91
28606;BME280;46498;49.968;7.754;2023-08-07T15:08:34;-18849.00;;;17.93;47.75
28606;BME280;46498;49.968;7.754;2023-08-07T15:13:35;-18857.00;;;18.18;46.24
28606;BME280;46498;49.968;7.754;2023-08-07T15:18:36;-18849.00;;;17.94;45.20
28606;BME280;46498;49.968;7.754;2023-08-07T15:23:39;-18850.00;;;17.96;44.35
28606;BME280;46498;49.968;7.754;2023-08-07T15:28:40;-18854.00;;;18.11;45.94
28606;BME280;46498;49.968;7.754;2023-08-07T15:33:41;-18857.00;;;18.20;45.85
28606;BME280;46498;49.968;7.754;2023-08-07T15:38:42;-18848.00;;;17.91;46.83
28606;BME280;46498;49.968;7.754;2023-08-07T15:43:44;-18851.00;;;17.99;46.31
28606;BME280;46498;49.968;7.754;2023-08-07T15:48:45;-18846.00;;;17.85;46.48
28606;BME280;46498;49.968;7.754;2023-08-07T15:53:46;-18839.00;;;17.64;46.03
28606;BME280;46498;49.968;7.754;2023-08-07T15:58:47;-18828.00;;;17.27;47.62
28606;BME280;46498;49.968;7.754;2023-08-07T16:03:47;-18818.00;;;16.97;49.16
28606;BME280;46498;49.968;7.754;2023-08-07T16:08:48;-18815.00;;;16.87;50.22
28606;BME280;46498;49.968;7.754;2023-08-07T16:13:49;-18816.00;;;16.90;51.83
28606;BME280;46498;49.968;7.754;2023-08-07T16:18:50;-18838.00;;;17.59;49.63
28606;BME280;46498;49.968;7.754;2023-08-07T16:23:51;-18843.00;;;17.74;48.61
28606;BME280;46498;49.968;7.754;2023-08-07T16:28:52;-18838.00;;;17.61;47.03
28606;BME280;46498;49.968;7.754;2023-08-07T16:33:53;-18821.00;;;17.06;47.82
28606;BME280;46498;49.968;7.754;2023-08-07T16:38:54;-18813.00;;;16.82;49.73
28606;BME280;46498;49.968;7.754;2023-08-07T16:43:55;-18810.00;;;16.70;49.88
28606;BME280;46498;49.968;7.754;2023-08-07T16:48:56;-18804.00;;;16.53;51.56
28606;BME280;46498;49.968;7.754;2023-08-07T16:53:57;-18799.00;;;16.36;53.38
28606;BME280;46498;49.968;7.754;2023-08-07T16:58:57;-18799.00;;;16.36;50.99
28606;BME280;46498;49.968;7.754;2023-08-07T17:03:58;-18797.00;;;16.31;51.70
28606;BME280;46498;49.968;7.754;2023-08-07T17:08:59;-18797.00;;;16.31;54.83
28606;BME280;46498;49.968;7.754;2023-08-07T17:14:01;-18795.00;;;16.23;54.78
28606;BME280;46498;49.968;7.754;2023-08-07T17:19:02;-18799.00;;;16.37;57.44
28606;BME280;46498;49.968;7.754;2023-08-07T17:24:03;-18807.00;;;16.61;55.24
28606;BME280;46498;49.968;7.754;2023-08-07T17:29:04;-18809.00;;;16.69;55.35
28606;BME280;46498;49.968;7.754;2023-08-07T17:34:05;-18803.00;;;16.48;55.93
28606;BME280;46498;49.968;7.754;2023-08-07T17:39:06;-18790.00;;;16.10;59.70
28606;BME280;46498;49.968;7.754;2023-08-07T17:44:07;-18784.00;;;15.89;60.28
28606;BME280;46498;49.968;7.754;2023-08-07T17:49:08;-18783.00;;;15.85;64.68
28606;BME280;46498;49.968;7.754;2023-08-07T17:54:09;-18782.00;;;15.82;60.79
28606;BME280;46498;49.968;7.754;2023-08-07T17:59:10;-18776.00;;;15.65;64.30
28606;BME280;46498;49.968;7.754;2023-08-07T18:04:11;-18775.00;;;15.63;64.47
28606;BME280;46498;49.968;7.754;2023-08-07T18:09:12;-18774.00;;;15.57;64.57
28606;BME280;46498;49.968;7.754;2023-08-07T18:14:13;-18772.00;;;15.52;64.94
28606;BME280;46498;49.968;7.754;2023-08-07T18:19:14;-18770.00;;;15.47;65.34
28606;BME280;46498;49.968;7.754;2023-08-07T18:24:14;-18768.00;;;15.38;66.98
28606;BME280;46498;49.968;7.754;2023-08-07T18:29:16;-18765.00;;;15.28;68.39
28606;BME280;46498;49.968;7.754;2023-08-07T18:34:17;-18764.00;;;15.26;69.48
28606;BME280;46498;49.968;7.754;2023-08-07T18:39:18;-18763.00;;;15.24;68.84
28606;BME280;46498;49.968;7.754;2023-08-07T18:44:20;-18762.00;;;15.19;71.50
28606;BME280;46498;49.968;7.754;2023-08-07T18:49:22;-18758.00;;;15.06;71.79
28606;BME280;46498;49.968;7.754;2023-08-07T18:54:24;-18754.00;;;14.95;73.19
28606;BME280;46498;49.968;7.754;2023-08-07T18:59:25;-18754.00;;;14.96;74.43
28606;BME280;46498;49.968;7.754;2023-08-07T19:04:27;-18752.00;;;14.89;74.30
28606;BME280;46498;49.968;7.754;2023-08-07T19:09:28;-18749.00;;;14.80;75.68
28606;BME280;46498;49.968;7.754;2023-08-07T19:14:28;-18751.00;;;14.86;75.57
28606;BME280;46498;49.968;7.754;2023-08-07T19:19:30;-18747.00;;;14.74;78.53
28606;BME280;46498;49.968;7.754;2023-08-07T19:24:31;-18743.00;;;14.62;79.99
28606;BME280;46498;49.968;7.754;2023-08-07T19:29:32;-18743.00;;;14.59;81.17
28606;BME280;46498;49.968;7.754;2023-08-07T19:34:33;-18741.00;;;14.53;81.37
28606;BME280;46498;49.968;7.754;2023-08-07T19:39:35;-18738.00;;;14.45;83.24
28606;BME280;46498;49.968;7.754;2023-08-07T19:44:36;-18739.00;;;14.49;86.02
28606;BME280;46498;49.968;7.754;2023-08-07T19:49:37;-18732.00;;;14.27;87.99
28606;BME280;46498;49.968;7.754;2023-08-07T19:54:38;-18729.00;;;14.17;89.22
28606;BME280;46498;49.968;7.754;2023-08-07T19:59:44;-18727.00;;;14.10;91.41
28606;BME280;46498;49.968;7.754;2023-08-07T20:04:46;-18724.00;;;14.01;92.73
28606;BME280;46498;49.968;7.754;2023-08-07T20:09:47;-18723.00;;;13.98;95.62
28606;BME280;46498;49.968;7.754;2023-08-07T20:14:48;-18718.00;;;13.83;97.20
28606;BME280;46498;49.968;7.754;2023-08-07T20:19:50;-18715.00;;;13.73;98.73
28606;BME280;46498;49.968;7.754;2023-08-07T20:24:51;-18713.00;;;13.65;98.97
28606;BME280;46498;49.968;7.754;2023-08-07T20:29:52;-18712.00;;;13.62;100.00
28606;BME280;46498;49.968;7.754;2023-08-07T20:34:53;-18708.00;;;13.51;100.00
28606;BME280;46498;49.968;7.754;2023-08-07T20:39:54;-18707.00;;;13.47;100.00
28606;BME280;46498;49.968;7.754;2023-08-07T20:44:56;-18704.00;;;13.39;100.00
28606;BME280;46498;49.968;7.754;2023-08-07T20:49:57;-18703.00;;;13.35;100.00
28606;BME280;46498;49.968;7.754;2023-08-07T20:54:58;-18701.00;;;13.30;100.00
28606;BME280;46498;49.968;7.754;2023-08-07T20:59:59;-18698.00;;;13.21;100.00
28606;BME280;46498;49.968;7.754;2023-08-07T21:05:00;-18696.00;;;13.13;100.00
28606;BME280;46498;49.968;7.754;2023-08-07T21:10:00;-18694.00;;;13.05;100.00
28606;BME280;46498;49.968;7.754;2023-08-07T21:15:02;-18688.00;;;12.87;100.00
28606;BME280;46498;49.968;7.754;2023-08-07T21:20:05;-18686.00;;;12.80;100.00
28606;BME280;46498;49.968;7.754;2023-08-07T21:25:07;-18685.00;;;12.78;100.00
28606;BME280;46498;49.968;7.754;2023-08-07T21:30:08;-18683.00;;;12.72;100.00
28606;BME280;46498;49.968;7.754;2023-08-07T21:35:10;-18682.00;;;12.70;100.00
28606;BME280;46498;49.968;7.754;2023-08-07T21:40:11;-18681.00;;;12.65;100.00
28606;BME280;46498;49.968;7.754;2023-08-07T21:45:12;-18679.00;;;12.58;100.00
28606;BME280;46498;49.968;7.754;2023-08-07T21:50:13;-18678.00;;;12.55;100.00
28606;BME280;46498;49.968;7.754;2023-08-07T21:55:14;-18676.00;;;12.49;100.00
28606;BME280;46498;49.968;7.754;2023-08-07T22:00:18;-18677.00;;;12.53;100.00
28606;BME280;46498;49.968;7.754;2023-08-07T22:05:21;-18677.00;;;12.54;100.00
28606;BME280;46498;49.968;7.754;2023-08-07T22:10:21;-18679.00;;;12.60;100.00
28606;BME280;46498;49.968;7.754;2023-08-07T22:15:22;-18681.00;;;12.65;100.00
28606;BME280;46498;49.968;7.754;2023-08-07T22:20:24;-18681.00;;;12.66;100.00
28606;BME280;46498;49.968;7.754;2023-08-07T22:25:25;-18682.00;;;12.69;100.00
28606;BME280;46498;49.968;7.754;2023-08-07T22:30:26;-18684.00;;;12.75;100.00
28606;BME280;46498;49.968;7.754;2023-08-07T22:35:26;-18685.00;;;12.77;100.00
28606;BME280;46498;49.968;7.754;2023-08-07T22:40:27;-18689.00;;;12.90;100.00
28606;BME280;46498;49.968;7.754;2023-08-07T22:45:28;-18684.00;;;12.75;100.00
28606;BME280;46498;49.968;7.754;2023-08-07T22:50:29;-18682.00;;;12.70;100.00
28606;BME280;46498;49.968;7.754;2023-08-07T22:55:30;-18681.00;;;12.66;100.00
28606;BME280;46498;49.968;7.754;2023-08-07T23:00:31;-18680.00;;;12.64;100.00
28606;BME280;46498;49.968;7.754;2023-08-07T23:05:34;-18677.00;;;12.52;100.00
28606;BME280;46498;49.968;7.754;2023-08-07T23:10:35;-18675.00;;;12.47;100.00
28606;BME280;46498;49.968;7.754;2023-08-07T23:15:35;-18673.00;;;12.40;100.00
28606;BME280;46498;49.968;7.754;2023-08-07T23:20:38;-18674.00;;;12.45;100.00
28606;BME280;46498;49.968;7.754;2023-08-07T23:25:39;-18672.00;;;12.39;100.00
28606;BME280;46498;49.968;7.754;2023-08-07T23:30:39;-18678.00;;;12.58;100.00
28606;BME280;46498;49.968;7.754;2023-08-07T23:35:41;-18677.00;;;12.53;100.00
28606;BME280;46498;49.968;7.754;2023-08-07T23:40:41;-18682.00;;;12.70;100.00
28606;BME280;46498;49.968;7.754;2023-08-07T23:45:43;-18686.00;;;12.82;100.00
28606;BME280;46498;49.968;7.754;2023-08-07T23:50:44;-18683.00;;;12.72;100.00
28606;BME280;46498;49.968;7.754;2023-08-07T23:55:45;-18684.00;;;12.75;100.00
